Noarlunga, South Australia

8:57 AM ACDT on December 23, 2014 (GMT +1030)
Christies Beach | Change Station
CLOSE
Current Station
Personal Weather Station
Location: Adelaide, SOUTH AUSTRALIA
Elevation: 135 ft
Nearby Weather Stations

Elev 135 ft 35.13 °S, 138.48 °E | Updated 3 seconds ago

Mostly Cloudy
Mostly Cloudy
65.5 °F
Feels Like 65.5 °F
N
11.2
Wind Variable Wind from SW
Gusts 15.0 mph

Today
High -- | Low -- °F
--% Chance of Precip.
Yesterday
High -- | Low -- °F
Precip. -- in
5:58 AM 8:30 PM
New Moon, 1% visible
Pressure 29.89 in
Visibility 6.2 miles
Clouds Scattered Clouds 1800 ft
Scattered Clouds 1900 ft
Mostly Cloudy 2200 ft
Dew Point 55 °F
Humidity 70%
Rainfall 0.00 in
Snow Depth Not available.
UV 2.0 out of 12
Pollen Not available.
Air Quality Not available.
Flu Activity Not available.
METAR YPAD 222200Z 20010KT 9999 SCT018 SCT019 BKN022 18/13 Q1012 NOSIG

More Conditions Fewer Conditions

Pressure 29.89 in
Visibility 6.2 miles
Clouds Scattered Clouds 1800 ft
Scattered Clouds 1900 ft
Mostly Cloudy 2200 ft
Dew Point 55 °F
Humidity 70%
Rainfall 0.00 in
Snow Depth Not available.
UV 2.0 out of 12
Pollen Not available.
Air Quality Not available.
Flu Activity Not available.
METAR YPAD 222200Z 20010KT 9999 SCT018 SCT019 BKN022 18/13 Q1012 NOSIG

More Conditions Fewer Conditions

10-Day Weather Forecast

Almanac

Astronomy

Dec. 23, 2014 Rise Set
Actual Time
Civil Twilight
Nautical Twilight
Astronomical Twilight
Moon
Length of Visible Light
Length of Day
Tomorrow will be .
, % of the Moon is Illuminated

Today's Extremes

Country Highs Country Lows

Community

WunderPhotos

Upload Photos

1,779,694 photos uploaded!

WunderBlogs® & News

Nearby

Air Quality

  Air Quality AQ Index Pollutant
Not available.

Snow Depth

Station Depth Elevation

Earthquake Activity

City Distance Mag. Time & Date
Minimum magnitude displayed is 2.5.

Coastal Water Temperatures

Place Temperature

Nearby Weather Stations